sensor_id;sensor_type;location;lat;lon;timestamp;P1;durP1;ratioP1;P2;durP2;ratioP2
65289;SDS011;51893;59.754;10.110;2022-11-27T00:01:45;3.70;;;2.80;;
65289;SDS011;51893;59.754;10.110;2022-11-27T00:04:17;3.60;;;3.10;;
65289;SDS011;51893;59.754;10.110;2022-11-27T00:06:47;4.10;;;3.30;;
65289;SDS011;51893;59.754;10.110;2022-11-27T00:09:16;4.10;;;3.20;;
65289;SDS011;51893;59.754;10.110;2022-11-27T00:11:46;3.20;;;2.80;;
65289;SDS011;51893;59.754;10.110;2022-11-27T00:14:15;3.60;;;3.30;;
65289;SDS011;51893;59.754;10.110;2022-11-27T00:16:44;5.30;;;3.20;;
65289;SDS011;51893;59.754;10.110;2022-11-27T00:19:15;3.70;;;3.00;;
65289;SDS011;51893;59.754;10.110;2022-11-27T00:21:47;2.60;;;2.30;;
65289;SDS011;51893;59.754;10.110;2022-11-27T00:24:15;3.90;;;3.40;;
65289;SDS011;51893;59.754;10.110;2022-11-27T00:26:44;4.30;;;3.40;;
65289;SDS011;51893;59.754;10.110;2022-11-27T00:29:26;3.90;;;3.30;;
65289;SDS011;51893;59.754;10.110;2022-11-27T00:31:58;4.90;;;3.70;;
65289;SDS011;51893;59.754;10.110;2022-11-27T00:34:26;5.30;;;3.30;;
65289;SDS011;51893;59.754;10.110;2022-11-27T00:36:55;5.00;;;3.20;;
65289;SDS011;51893;59.754;10.110;2022-11-27T00:39:23;3.60;;;3.30;;
65289;SDS011;51893;59.754;10.110;2022-11-27T00:41:56;3.40;;;3.00;;
65289;SDS011;51893;59.754;10.110;2022-11-27T00:44:25;3.60;;;3.00;;
65289;SDS011;51893;59.754;10.110;2022-11-27T00:46:54;2.90;;;2.60;;
65289;SDS011;51893;59.754;10.110;2022-11-27T00:49:23;4.10;;;3.50;;
65289;SDS011;51893;59.754;10.110;2022-11-27T00:51:54;4.00;;;3.50;;
65289;SDS011;51893;59.754;10.110;2022-11-27T00:54:25;4.80;;;3.40;;
65289;SDS011;51893;59.754;10.110;2022-11-27T00:57:01;3.70;;;3.30;;
65289;SDS011;51893;59.754;10.110;2022-11-27T00:59:29;3.40;;;3.00;;
65289;SDS011;51893;59.754;10.110;2022-11-27T01:02:00;4.70;;;3.00;;
65289;SDS011;51893;59.754;10.110;2022-11-27T01:04:30;4.10;;;3.30;;
65289;SDS011;51893;59.754;10.110;2022-11-27T01:06:58;4.40;;;3.40;;
65289;SDS011;51893;59.754;10.110;2022-11-27T01:09:26;3.80;;;3.30;;
65289;SDS011;51893;59.754;10.110;2022-11-27T01:11:55;4.20;;;3.30;;
65289;SDS011;51893;59.754;10.110;2022-11-27T01:14:26;6.20;;;3.90;;
65289;SDS011;51893;59.754;10.110;2022-11-27T01:16:54;4.40;;;3.80;;
65289;SDS011;51893;59.754;10.110;2022-11-27T01:19:24;5.10;;;3.20;;
65289;SDS011;51893;59.754;10.110;2022-11-27T01:21:52;3.40;;;3.00;;
65289;SDS011;51893;59.754;10.110;2022-11-27T01:24:22;3.50;;;2.70;;
65289;SDS011;51893;59.754;10.110;2022-11-27T01:26:55;2.40;;;2.00;;
65289;SDS011;51893;59.754;10.110;2022-11-27T01:29:26;2.70;;;2.30;;
65289;SDS011;51893;59.754;10.110;2022-11-27T01:31:56;2.40;;;2.10;;
65289;SDS011;51893;59.754;10.110;2022-11-27T01:34:25;4.40;;;2.20;;
65289;SDS011;51893;59.754;10.110;2022-11-27T01:36:54;1.40;;;1.30;;
65289;SDS011;51893;59.754;10.110;2022-11-27T01:39:23;3.60;;;2.20;;
65289;SDS011;51893;59.754;10.110;2022-11-27T01:41:51;2.30;;;2.10;;
65289;SDS011;51893;59.754;10.110;2022-11-27T01:49:35;7.50;;;3.50;;
65289;SDS011;51893;59.754;10.110;2022-11-27T01:52:31;3.50;;;2.60;;
65289;SDS011;51893;59.754;10.110;2022-11-27T01:55:27;3.40;;;2.80;;
65289;SDS011;51893;59.754;10.110;2022-11-27T01:58:11;5.10;;;2.60;;
65289;SDS011;51893;59.754;10.110;2022-11-27T02:00:44;4.30;;;2.60;;
65289;SDS011;51893;59.754;10.110;2022-11-27T02:03:14;3.00;;;2.60;;
65289;SDS011;51893;59.754;10.110;2022-11-27T02:08:20;5.00;;;3.10;;
65289;SDS011;51893;59.754;10.110;2022-11-27T02:11:08;26.40;;;10.30;;
65289;SDS011;51893;59.754;10.110;2022-11-27T02:14:06;7.00;;;4.00;;
65289;SDS011;51893;59.754;10.110;2022-11-27T02:26:58;3.90;;;2.80;;
65289;SDS011;51893;59.754;10.110;2022-11-27T02:29:38;4.10;;;3.20;;
65289;SDS011;51893;59.754;10.110;2022-11-27T02:34:54;4.40;;;2.70;;
65289;SDS011;51893;59.754;10.110;2022-11-27T02:37:49;3.70;;;2.90;;
65289;SDS011;51893;59.754;10.110;2022-11-27T02:43:38;5.20;;;2.30;;
65289;SDS011;51893;59.754;10.110;2022-11-27T02:46:11;3.20;;;2.90;;
65289;SDS011;51893;59.754;10.110;2022-11-27T02:48:56;3.50;;;2.50;;
65289;SDS011;51893;59.754;10.110;2022-11-27T02:51:56;3.00;;;2.70;;
65289;SDS011;51893;59.754;10.110;2022-11-27T02:57:03;3.60;;;2.70;;
65289;SDS011;51893;59.754;10.110;2022-11-27T02:59:41;3.20;;;2.60;;
65289;SDS011;51893;59.754;10.110;2022-11-27T03:02:20;3.30;;;2.70;;
65289;SDS011;51893;59.754;10.110;2022-11-27T03:04:58;3.90;;;3.00;;
65289;SDS011;51893;59.754;10.110;2022-11-27T03:07:56;3.00;;;2.60;;
65289;SDS011;51893;59.754;10.110;2022-11-27T03:10:41;4.40;;;2.80;;
65289;SDS011;51893;59.754;10.110;2022-11-27T03:13:17;5.00;;;3.20;;
65289;SDS011;51893;59.754;10.110;2022-11-27T03:18:58;3.90;;;2.70;;
65289;SDS011;51893;59.754;10.110;2022-11-27T03:21:45;3.70;;;2.60;;
65289;SDS011;51893;59.754;10.110;2022-11-27T03:24:22;3.80;;;3.00;;
65289;SDS011;51893;59.754;10.110;2022-11-27T03:26:54;3.90;;;2.90;;
65289;SDS011;51893;59.754;10.110;2022-11-27T03:29:42;3.60;;;2.70;;
65289;SDS011;51893;59.754;10.110;2022-11-27T03:32:16;5.30;;;3.40;;
65289;SDS011;51893;59.754;10.110;2022-11-27T03:34:46;4.10;;;2.90;;
65289;SDS011;51893;59.754;10.110;2022-11-27T03:37:16;3.50;;;2.90;;
65289;SDS011;51893;59.754;10.110;2022-11-27T03:39:45;5.90;;;3.60;;
65289;SDS011;51893;59.754;10.110;2022-11-27T03:42:30;4.30;;;2.90;;
65289;SDS011;51893;59.754;10.110;2022-11-27T03:45:39;6.50;;;2.90;;
65289;SDS011;51893;59.754;10.110;2022-11-27T03:48:34;5.80;;;2.90;;
65289;SDS011;51893;59.754;10.110;2022-11-27T03:57:54;4.50;;;2.00;;
65289;SDS011;51893;59.754;10.110;2022-11-27T04:00:31;5.00;;;2.60;;
65289;SDS011;51893;59.754;10.110;2022-11-27T04:03:10;4.20;;;2.20;;
65289;SDS011;51893;59.754;10.110;2022-11-27T04:05:46;3.10;;;2.50;;
65289;SDS011;51893;59.754;10.110;2022-11-27T04:08:14;5.20;;;3.30;;
65289;SDS011;51893;59.754;10.110;2022-11-27T04:10:43;5.20;;;2.90;;
65289;SDS011;51893;59.754;10.110;2022-11-27T04:13:12;3.30;;;2.60;;
65289;SDS011;51893;59.754;10.110;2022-11-27T04:15:44;4.40;;;2.90;;
65289;SDS011;51893;59.754;10.110;2022-11-27T04:18:12;3.20;;;2.90;;
65289;SDS011;51893;59.754;10.110;2022-11-27T04:20:42;3.40;;;2.60;;
65289;SDS011;51893;59.754;10.110;2022-11-27T04:23:13;2.80;;;2.60;;
65289;SDS011;51893;59.754;10.110;2022-11-27T04:25:42;4.00;;;2.60;;
65289;SDS011;51893;59.754;10.110;2022-11-27T04:28:12;2.80;;;2.50;;
65289;SDS011;51893;59.754;10.110;2022-11-27T04:30:40;2.20;;;1.90;;
65289;SDS011;51893;59.754;10.110;2022-11-27T04:33:11;2.80;;;2.50;;
65289;SDS011;51893;59.754;10.110;2022-11-27T04:35:42;3.50;;;2.60;;
65289;SDS011;51893;59.754;10.110;2022-11-27T04:38:10;4.20;;;2.40;;
65289;SDS011;51893;59.754;10.110;2022-11-27T04:40:41;4.50;;;2.50;;
65289;SDS011;51893;59.754;10.110;2022-11-27T04:43:11;4.70;;;2.90;;
65289;SDS011;51893;59.754;10.110;2022-11-27T04:45:41;4.10;;;2.60;;
65289;SDS011;51893;59.754;10.110;2022-11-27T04:48:15;2.50;;;2.30;;
65289;SDS011;51893;59.754;10.110;2022-11-27T04:50:43;4.00;;;2.50;;
65289;SDS011;51893;59.754;10.110;2022-11-27T04:53:15;9.10;;;2.80;;
65289;SDS011;51893;59.754;10.110;2022-11-27T04:55:50;3.20;;;2.90;;
65289;SDS011;51893;59.754;10.110;2022-11-27T04:58:19;3.00;;;2.60;;
65289;SDS011;51893;59.754;10.110;2022-11-27T05:00:48;4.50;;;3.10;;
65289;SDS011;51893;59.754;10.110;2022-11-27T05:03:20;3.30;;;2.80;;
65289;SDS011;51893;59.754;10.110;2022-11-27T05:06:06;3.00;;;2.60;;
65289;SDS011;51893;59.754;10.110;2022-11-27T05:08:34;3.10;;;2.70;;
65289;SDS011;51893;59.754;10.110;2022-11-27T05:11:07;3.10;;;2.50;;
65289;SDS011;51893;59.754;10.110;2022-11-27T05:13:38;3.20;;;2.50;;
65289;SDS011;51893;59.754;10.110;2022-11-27T05:16:08;2.20;;;2.10;;
65289;SDS011;51893;59.754;10.110;2022-11-27T05:18:37;2.80;;;1.90;;
65289;SDS011;51893;59.754;10.110;2022-11-27T05:21:08;3.10;;;2.30;;
65289;SDS011;51893;59.754;10.110;2022-11-27T05:23:36;3.00;;;2.50;;
65289;SDS011;51893;59.754;10.110;2022-11-27T05:26:09;2.30;;;2.10;;
65289;SDS011;51893;59.754;10.110;2022-11-27T05:28:38;3.70;;;2.50;;
65289;SDS011;51893;59.754;10.110;2022-11-27T05:31:08;2.40;;;2.20;;
65289;SDS011;51893;59.754;10.110;2022-11-27T05:33:39;2.30;;;2.10;;
65289;SDS011;51893;59.754;10.110;2022-11-27T05:36:08;2.50;;;2.30;;
65289;SDS011;51893;59.754;10.110;2022-11-27T05:38:39;2.20;;;2.10;;
65289;SDS011;51893;59.754;10.110;2022-11-27T05:41:08;2.40;;;2.00;;
65289;SDS011;51893;59.754;10.110;2022-11-27T05:43:37;1.50;;;1.40;;
65289;SDS011;51893;59.754;10.110;2022-11-27T05:46:08;2.20;;;1.90;;
65289;SDS011;51893;59.754;10.110;2022-11-27T05:51:08;2.80;;;1.60;;
65289;SDS011;51893;59.754;10.110;2022-11-27T05:53:38;2.00;;;1.90;;
65289;SDS011;51893;59.754;10.110;2022-11-27T05:56:14;2.00;;;1.90;;
65289;SDS011;51893;59.754;10.110;2022-11-27T05:58:47;2.70;;;2.00;;
65289;SDS011;51893;59.754;10.110;2022-11-27T06:01:17;6.70;;;2.20;;
65289;SDS011;51893;59.754;10.110;2022-11-27T06:03:48;3.70;;;2.20;;
65289;SDS011;51893;59.754;10.110;2022-11-27T06:06:23;2.10;;;2.00;;
65289;SDS011;51893;59.754;10.110;2022-11-27T06:08:54;2.80;;;2.00;;
65289;SDS011;51893;59.754;10.110;2022-11-27T06:11:23;2.30;;;2.00;;
65289;SDS011;51893;59.754;10.110;2022-11-27T06:13:51;3.10;;;2.60;;
65289;SDS011;51893;59.754;10.110;2022-11-27T06:16:21;2.70;;;2.50;;
65289;SDS011;51893;59.754;10.110;2022-11-27T06:18:53;3.10;;;2.20;;
65289;SDS011;51893;59.754;10.110;2022-11-27T06:21:22;2.70;;;2.40;;
65289;SDS011;51893;59.754;10.110;2022-11-27T06:23:56;3.20;;;2.70;;
65289;SDS011;51893;59.754;10.110;2022-11-27T06:26:26;3.80;;;3.40;;
65289;SDS011;51893;59.754;10.110;2022-11-27T06:29:00;6.10;;;5.10;;
65289;SDS011;51893;59.754;10.110;2022-11-27T06:31:30;4.30;;;3.90;;
65289;SDS011;51893;59.754;10.110;2022-11-27T06:34:04;4.90;;;3.90;;
65289;SDS011;51893;59.754;10.110;2022-11-27T06:36:37;4.50;;;3.60;;
65289;SDS011;51893;59.754;10.110;2022-11-27T06:39:11;4.10;;;3.10;;
65289;SDS011;51893;59.754;10.110;2022-11-27T06:41:40;3.80;;;2.80;;
65289;SDS011;51893;59.754;10.110;2022-11-27T06:44:10;2.90;;;2.60;;
65289;SDS011;51893;59.754;10.110;2022-11-27T06:46:39;3.20;;;2.80;;
65289;SDS011;51893;59.754;10.110;2022-11-27T06:49:09;2.80;;;2.50;;
65289;SDS011;51893;59.754;10.110;2022-11-27T06:51:44;2.70;;;2.40;;
65289;SDS011;51893;59.754;10.110;2022-11-27T06:54:12;2.40;;;2.20;;
65289;SDS011;51893;59.754;10.110;2022-11-27T06:56:43;2.70;;;2.30;;
65289;SDS011;51893;59.754;10.110;2022-11-27T06:59:13;2.00;;;1.90;;
65289;SDS011;51893;59.754;10.110;2022-11-27T07:01:41;2.30;;;2.10;;
65289;SDS011;51893;59.754;10.110;2022-11-27T07:04:14;2.50;;;2.10;;
65289;SDS011;51893;59.754;10.110;2022-11-27T07:06:47;2.70;;;2.50;;
65289;SDS011;51893;59.754;10.110;2022-11-27T07:09:17;2.60;;;1.70;;
65289;SDS011;51893;59.754;10.110;2022-11-27T07:11:48;3.50;;;2.50;;
65289;SDS011;51893;59.754;10.110;2022-11-27T07:14:20;2.30;;;2.10;;
65289;SDS011;51893;59.754;10.110;2022-11-27T07:16:50;2.30;;;1.90;;
65289;SDS011;51893;59.754;10.110;2022-11-27T07:19:20;2.20;;;2.10;;
65289;SDS011;51893;59.754;10.110;2022-11-27T07:21:49;2.30;;;2.10;;
65289;SDS011;51893;59.754;10.110;2022-11-27T07:24:17;2.20;;;1.90;;
65289;SDS011;51893;59.754;10.110;2022-11-27T07:26:46;3.40;;;2.20;;
65289;SDS011;51893;59.754;10.110;2022-11-27T07:29:16;2.00;;;1.90;;
65289;SDS011;51893;59.754;10.110;2022-11-27T07:31:45;2.00;;;1.80;;
65289;SDS011;51893;59.754;10.110;2022-11-27T07:34:17;1.90;;;1.80;;
65289;SDS011;51893;59.754;10.110;2022-11-27T07:36:48;2.60;;;2.40;;
65289;SDS011;51893;59.754;10.110;2022-11-27T07:39:17;3.50;;;2.00;;
65289;SDS011;51893;59.754;10.110;2022-11-27T07:42:05;2.40;;;2.10;;
65289;SDS011;51893;59.754;10.110;2022-11-27T07:44:54;1.80;;;1.60;;
65289;SDS011;51893;59.754;10.110;2022-11-27T07:47:24;2.20;;;2.00;;
65289;SDS011;51893;59.754;10.110;2022-11-27T07:49:53;2.50;;;2.20;;
65289;SDS011;51893;59.754;10.110;2022-11-27T07:52:25;2.60;;;2.00;;
65289;SDS011;51893;59.754;10.110;2022-11-27T07:55:03;3.30;;;2.50;;
65289;SDS011;51893;59.754;10.110;2022-11-27T07:57:33;2.60;;;2.20;;
65289;SDS011;51893;59.754;10.110;2022-11-27T08:00:12;3.00;;;2.20;;
65289;SDS011;51893;59.754;10.110;2022-11-27T08:02:44;5.20;;;2.20;;
65289;SDS011;51893;59.754;10.110;2022-11-27T08:05:19;2.00;;;1.80;;
65289;SDS011;51893;59.754;10.110;2022-11-27T08:08:01;2.40;;;2.20;;
65289;SDS011;51893;59.754;10.110;2022-11-27T08:11:03;4.00;;;2.40;;
65289;SDS011;51893;59.754;10.110;2022-11-27T08:13:38;3.50;;;2.80;;
65289;SDS011;51893;59.754;10.110;2022-11-27T08:16:08;21.90;;;11.90;;
65289;SDS011;51893;59.754;10.110;2022-11-27T08:18:38;17.20;;;9.50;;
65289;SDS011;51893;59.754;10.110;2022-11-27T08:21:10;12.10;;;6.40;;
65289;SDS011;51893;59.754;10.110;2022-11-27T08:23:52;8.40;;;5.00;;
65289;SDS011;51893;59.754;10.110;2022-11-27T08:26:25;3.40;;;1.70;;
65289;SDS011;51893;59.754;10.110;2022-11-27T08:29:11;2.50;;;1.50;;
65289;SDS011;51893;59.754;10.110;2022-11-27T08:31:42;4.70;;;2.40;;
65289;SDS011;51893;59.754;10.110;2022-11-27T08:34:17;8.20;;;2.40;;
65289;SDS011;51893;59.754;10.110;2022-11-27T08:37:13;9.40;;;2.40;;
65289;SDS011;51893;59.754;10.110;2022-11-27T08:39:47;3.90;;;1.60;;
65289;SDS011;51893;59.754;10.110;2022-11-27T08:42:25;8.00;;;2.30;;
65289;SDS011;51893;59.754;10.110;2022-11-27T08:45:37;5.00;;;2.20;;
65289;SDS011;51893;59.754;10.110;2022-11-27T08:48:13;7.00;;;2.50;;
65289;SDS011;51893;59.754;10.110;2022-11-27T08:51:24;7.30;;;2.40;;
65289;SDS011;51893;59.754;10.110;2022-11-27T08:54:34;8.80;;;3.10;;
65289;SDS011;51893;59.754;10.110;2022-11-27T08:58:11;6.60;;;2.20;;
65289;SDS011;51893;59.754;10.110;2022-11-27T09:00:55;6.90;;;2.20;;
65289;SDS011;51893;59.754;10.110;2022-11-27T09:03:23;5.70;;;1.60;;
65289;SDS011;51893;59.754;10.110;2022-11-27T09:05:53;10.40;;;2.20;;
65289;SDS011;51893;59.754;10.110;2022-11-27T09:08:21;2.80;;;1.40;;
65289;SDS011;51893;59.754;10.110;2022-11-27T09:10:50;5.00;;;2.00;;
65289;SDS011;51893;59.754;10.110;2022-11-27T09:13:20;10.30;;;2.30;;
65289;SDS011;51893;59.754;10.110;2022-11-27T09:15:48;3.90;;;1.40;;
65289;SDS011;51893;59.754;10.110;2022-11-27T09:18:25;5.10;;;1.70;;
65289;SDS011;51893;59.754;10.110;2022-11-27T09:21:09;5.30;;;2.10;;
65289;SDS011;51893;59.754;10.110;2022-11-27T09:24:16;6.70;;;2.40;;
65289;SDS011;51893;59.754;10.110;2022-11-27T09:26:59;3.40;;;1.70;;
65289;SDS011;51893;59.754;10.110;2022-11-27T09:29:27;4.50;;;1.70;;
65289;SDS011;51893;59.754;10.110;2022-11-27T09:32:07;11.20;;;1.70;;
65289;SDS011;51893;59.754;10.110;2022-11-27T09:34:37;9.80;;;1.60;;
65289;SDS011;51893;59.754;10.110;2022-11-27T09:37:07;8.70;;;2.40;;
65289;SDS011;51893;59.754;10.110;2022-11-27T09:39:37;9.40;;;2.60;;
65289;SDS011;51893;59.754;10.110;2022-11-27T09:42:34;5.60;;;1.60;;
65289;SDS011;51893;59.754;10.110;2022-11-27T09:45:10;3.90;;;1.30;;
65289;SDS011;51893;59.754;10.110;2022-11-27T09:47:51;3.30;;;1.40;;
65289;SDS011;51893;59.754;10.110;2022-11-27T09:50:40;1.80;;;1.40;;
65289;SDS011;51893;59.754;10.110;2022-11-27T09:53:46;4.50;;;1.40;;
65289;SDS011;51893;59.754;10.110;2022-11-27T09:56:19;3.10;;;1.30;;
65289;SDS011;51893;59.754;10.110;2022-11-27T09:58:58;3.20;;;1.30;;
65289;SDS011;51893;59.754;10.110;2022-11-27T10:01:29;5.30;;;2.00;;
65289;SDS011;51893;59.754;10.110;2022-11-27T10:04:16;4.20;;;1.90;;
65289;SDS011;51893;59.754;10.110;2022-11-27T10:12:39;5.50;;;2.00;;
65289;SDS011;51893;59.754;10.110;2022-11-27T10:15:15;7.40;;;2.30;;
65289;SDS011;51893;59.754;10.110;2022-11-27T10:18:05;10.60;;;2.70;;
65289;SDS011;51893;59.754;10.110;2022-11-27T10:20:55;7.20;;;2.40;;
65289;SDS011;51893;59.754;10.110;2022-11-27T10:23:47;7.30;;;2.70;;
65289;SDS011;51893;59.754;10.110;2022-11-27T10:26:27;6.40;;;2.30;;
65289;SDS011;51893;59.754;10.110;2022-11-27T10:29:35;5.70;;;1.50;;
65289;SDS011;51893;59.754;10.110;2022-11-27T10:32:25;5.70;;;1.70;;
65289;SDS011;51893;59.754;10.110;2022-11-27T10:35:19;5.00;;;1.70;;
65289;SDS011;51893;59.754;10.110;2022-11-27T10:40:38;2.20;;;1.50;;
65289;SDS011;51893;59.754;10.110;2022-11-27T10:43:18;4.00;;;1.40;;
65289;SDS011;51893;59.754;10.110;2022-11-27T10:48:38;6.40;;;1.40;;
65289;SDS011;51893;59.754;10.110;2022-11-27T10:51:18;2.60;;;1.00;;
65289;SDS011;51893;59.754;10.110;2022-11-27T10:53:52;1.70;;;0.90;;
65289;SDS011;51893;59.754;10.110;2022-11-27T10:56:49;2.20;;;1.30;;
65289;SDS011;51893;59.754;10.110;2022-11-27T11:00:26;2.50;;;1.00;;
65289;SDS011;51893;59.754;10.110;2022-11-27T11:03:05;3.00;;;1.20;;
65289;SDS011;51893;59.754;10.110;2022-11-27T11:05:54;3.50;;;1.40;;
65289;SDS011;51893;59.754;10.110;2022-11-27T11:08:47;3.20;;;1.50;;
65289;SDS011;51893;59.754;10.110;2022-11-27T11:11:24;2.90;;;1.40;;
65289;SDS011;51893;59.754;10.110;2022-11-27T11:13:54;2.20;;;1.20;;
65289;SDS011;51893;59.754;10.110;2022-11-27T11:16:26;4.30;;;1.60;;
65289;SDS011;51893;59.754;10.110;2022-11-27T11:19:03;1.50;;;1.00;;
65289;SDS011;51893;59.754;10.110;2022-11-27T11:21:38;1.10;;;1.00;;
65289;SDS011;51893;59.754;10.110;2022-11-27T11:24:33;2.80;;;1.60;;
65289;SDS011;51893;59.754;10.110;2022-11-27T11:27:13;3.10;;;1.30;;
65289;SDS011;51893;59.754;10.110;2022-11-27T11:34:57;3.40;;;1.70;;
65289;SDS011;51893;59.754;10.110;2022-11-27T11:37:37;3.20;;;1.50;;
65289;SDS011;51893;59.754;10.110;2022-11-27T11:45:31;3.20;;;1.30;;
65289;SDS011;51893;59.754;10.110;2022-11-27T11:48:25;1.90;;;1.20;;
65289;SDS011;51893;59.754;10.110;2022-11-27T11:51:07;3.40;;;1.50;;
65289;SDS011;51893;59.754;10.110;2022-11-27T11:53:44;1.90;;;1.20;;
65289;SDS011;51893;59.754;10.110;2022-11-27T11:56:32;1.60;;;1.40;;
65289;SDS011;51893;59.754;10.110;2022-11-27T12:03:09;1.80;;;1.10;;
65289;SDS011;51893;59.754;10.110;2022-11-27T12:23:55;1.30;;;1.20;;
65289;SDS011;51893;59.754;10.110;2022-11-27T12:36:12;1.20;;;1.00;;
65289;SDS011;51893;59.754;10.110;2022-11-27T12:42:28;3.40;;;0.90;;
65289;SDS011;51893;59.754;10.110;2022-11-27T12:45:21;0.70;;;0.70;;
65289;SDS011;51893;59.754;10.110;2022-11-27T12:48:04;2.00;;;0.80;;
65289;SDS011;51893;59.754;10.110;2022-11-27T12:50:49;0.70;;;0.70;;
65289;SDS011;51893;59.754;10.110;2022-11-27T12:54:02;0.70;;;0.70;;
65289;SDS011;51893;59.754;10.110;2022-11-27T12:59:42;0.50;;;0.50;;
65289;SDS011;51893;59.754;10.110;2022-11-27T13:10:30;1.30;;;0.90;;
65289;SDS011;51893;59.754;10.110;2022-11-27T13:13:25;2.40;;;1.30;;
65289;SDS011;51893;59.754;10.110;2022-11-27T13:19:15;1.20;;;0.90;;
65289;SDS011;51893;59.754;10.110;2022-11-27T13:21:55;0.90;;;0.80;;
65289;SDS011;51893;59.754;10.110;2022-11-27T13:24:26;1.50;;;0.90;;
65289;SDS011;51893;59.754;10.110;2022-11-27T13:27:17;1.00;;;0.90;;
65289;SDS011;51893;59.754;10.110;2022-11-27T13:29:54;0.70;;;0.50;;
65289;SDS011;51893;59.754;10.110;2022-11-27T13:32:32;1.60;;;0.90;;
65289;SDS011;51893;59.754;10.110;2022-11-27T13:35:17;3.60;;;1.10;;
65289;SDS011;51893;59.754;10.110;2022-11-27T13:37:52;1.10;;;1.00;;
65289;SDS011;51893;59.754;10.110;2022-11-27T13:40:35;1.00;;;0.90;;
65289;SDS011;51893;59.754;10.110;2022-11-27T13:46:56;1.40;;;1.20;;
65289;SDS011;51893;59.754;10.110;2022-11-27T13:49:33;2.20;;;1.00;;
65289;SDS011;51893;59.754;10.110;2022-11-27T13:55:05;0.50;;;0.50;;
65289;SDS011;51893;59.754;10.110;2022-11-27T13:57:36;1.80;;;0.70;;
65289;SDS011;51893;59.754;10.110;2022-11-27T14:00:15;1.20;;;0.80;;
65289;SDS011;51893;59.754;10.110;2022-11-27T14:02:49;1.30;;;0.90;;
65289;SDS011;51893;59.754;10.110;2022-11-27T14:05:33;2.90;;;1.00;;
65289;SDS011;51893;59.754;10.110;2022-11-27T14:08:29;2.90;;;0.90;;
65289;SDS011;51893;59.754;10.110;2022-11-27T14:11:10;1.00;;;0.80;;
65289;SDS011;51893;59.754;10.110;2022-11-27T14:13:44;0.80;;;0.80;;
65289;SDS011;51893;59.754;10.110;2022-11-27T14:16:33;0.90;;;0.80;;
65289;SDS011;51893;59.754;10.110;2022-11-27T14:19:20;2.40;;;1.00;;
65289;SDS011;51893;59.754;10.110;2022-11-27T14:21:57;1.90;;;0.90;;
65289;SDS011;51893;59.754;10.110;2022-11-27T14:24:40;1.00;;;0.90;;
65289;SDS011;51893;59.754;10.110;2022-11-27T14:27:20;4.10;;;1.20;;
65289;SDS011;51893;59.754;10.110;2022-11-27T14:29:51;1.20;;;0.80;;
65289;SDS011;51893;59.754;10.110;2022-11-27T14:32:20;1.40;;;0.90;;
65289;SDS011;51893;59.754;10.110;2022-11-27T14:34:48;1.60;;;1.00;;
65289;SDS011;51893;59.754;10.110;2022-11-27T14:37:26;0.60;;;0.60;;
65289;SDS011;51893;59.754;10.110;2022-11-27T14:40:12;0.80;;;0.80;;
65289;SDS011;51893;59.754;10.110;2022-11-27T14:43:09;1.40;;;1.00;;
65289;SDS011;51893;59.754;10.110;2022-11-27T14:45:51;1.50;;;1.20;;
65289;SDS011;51893;59.754;10.110;2022-11-27T14:48:29;0.80;;;0.80;;
65289;SDS011;51893;59.754;10.110;2022-11-27T14:51:16;1.10;;;0.90;;
65289;SDS011;51893;59.754;10.110;2022-11-27T14:54:11;0.70;;;0.70;;
65289;SDS011;51893;59.754;10.110;2022-11-27T14:56:54;1.20;;;1.10;;
65289;SDS011;51893;59.754;10.110;2022-11-27T14:59:29;1.90;;;1.00;;
65289;SDS011;51893;59.754;10.110;2022-11-27T15:02:16;1.00;;;0.90;;
65289;SDS011;51893;59.754;10.110;2022-11-27T15:05:04;0.90;;;0.90;;
65289;SDS011;51893;59.754;10.110;2022-11-27T15:07:40;0.70;;;0.70;;
65289;SDS011;51893;59.754;10.110;2022-11-27T15:10:34;1.10;;;0.90;;
65289;SDS011;51893;59.754;10.110;2022-11-27T15:13:37;1.60;;;0.80;;
65289;SDS011;51893;59.754;10.110;2022-11-27T15:16:15;3.00;;;1.00;;
65289;SDS011;51893;59.754;10.110;2022-11-27T15:18:52;0.40;;;0.40;;
65289;SDS011;51893;59.754;10.110;2022-11-27T15:21:41;0.70;;;0.70;;
65289;SDS011;51893;59.754;10.110;2022-11-27T15:24:35;1.30;;;1.00;;
65289;SDS011;51893;59.754;10.110;2022-11-27T15:27:47;0.70;;;0.70;;
65289;SDS011;51893;59.754;10.110;2022-11-27T15:30:59;0.50;;;0.50;;
65289;SDS011;51893;59.754;10.110;2022-11-27T15:33:53;1.30;;;0.80;;
65289;SDS011;51893;59.754;10.110;2022-11-27T15:41:39;0.90;;;0.80;;
65289;SDS011;51893;59.754;10.110;2022-11-27T15:45:43;0.90;;;0.90;;
65289;SDS011;51893;59.754;10.110;2022-11-27T15:48:40;1.10;;;1.00;;
65289;SDS011;51893;59.754;10.110;2022-11-27T15:51:39;1.10;;;1.00;;
65289;SDS011;51893;59.754;10.110;2022-11-27T15:54:18;1.50;;;1.00;;
65289;SDS011;51893;59.754;10.110;2022-11-27T15:56:57;0.90;;;0.80;;
65289;SDS011;51893;59.754;10.110;2022-11-27T15:59:32;2.20;;;1.30;;
65289;SDS011;51893;59.754;10.110;2022-11-27T16:02:01;1.30;;;1.00;;
65289;SDS011;51893;59.754;10.110;2022-11-27T16:04:38;1.10;;;1.00;;
65289;SDS011;51893;59.754;10.110;2022-11-27T16:07:17;2.10;;;1.40;;
65289;SDS011;51893;59.754;10.110;2022-11-27T16:09:46;0.60;;;0.60;;
65289;SDS011;51893;59.754;10.110;2022-11-27T16:12:18;1.60;;;1.10;;
65289;SDS011;51893;59.754;10.110;2022-11-27T16:14:49;1.00;;;0.80;;
65289;SDS011;51893;59.754;10.110;2022-11-27T16:17:17;1.00;;;0.90;;
65289;SDS011;51893;59.754;10.110;2022-11-27T16:19:58;1.90;;;1.20;;
65289;SDS011;51893;59.754;10.110;2022-11-27T16:22:52;4.10;;;2.40;;
65289;SDS011;51893;59.754;10.110;2022-11-27T16:25:50;7.30;;;2.50;;
65289;SDS011;51893;59.754;10.110;2022-11-27T16:28:50;5.00;;;1.60;;
65289;SDS011;51893;59.754;10.110;2022-11-27T16:31:42;6.10;;;3.50;;
65289;SDS011;51893;59.754;10.110;2022-11-27T16:35:09;3.10;;;2.10;;
65289;SDS011;51893;59.754;10.110;2022-11-27T16:38:07;6.20;;;2.90;;
65289;SDS011;51893;59.754;10.110;2022-11-27T16:40:37;2.50;;;1.70;;
65289;SDS011;51893;59.754;10.110;2022-11-27T16:43:08;1.60;;;1.30;;
65289;SDS011;51893;59.754;10.110;2022-11-27T16:45:45;1.50;;;1.40;;
65289;SDS011;51893;59.754;10.110;2022-11-27T16:48:40;1.50;;;1.40;;
65289;SDS011;51893;59.754;10.110;2022-11-27T16:51:19;1.00;;;0.90;;
65289;SDS011;51893;59.754;10.110;2022-11-27T16:54:14;3.00;;;0.90;;
65289;SDS011;51893;59.754;10.110;2022-11-27T16:56:49;2.70;;;1.40;;
65289;SDS011;51893;59.754;10.110;2022-11-27T17:00:27;1.10;;;1.00;;
65289;SDS011;51893;59.754;10.110;2022-11-27T17:03:34;1.70;;;0.80;;
65289;SDS011;51893;59.754;10.110;2022-11-27T17:06:15;1.70;;;0.80;;
65289;SDS011;51893;59.754;10.110;2022-11-27T17:09:23;1.50;;;1.00;;
65289;SDS011;51893;59.754;10.110;2022-11-27T17:14:31;2.10;;;1.00;;
65289;SDS011;51893;59.754;10.110;2022-11-27T17:17:14;1.00;;;1.00;;
65289;SDS011;51893;59.754;10.110;2022-11-27T17:19:42;1.80;;;1.20;;
65289;SDS011;51893;59.754;10.110;2022-11-27T17:22:13;1.40;;;1.10;;
65289;SDS011;51893;59.754;10.110;2022-11-27T17:24:49;0.80;;;0.80;;
65289;SDS011;51893;59.754;10.110;2022-11-27T17:27:32;1.20;;;1.10;;
65289;SDS011;51893;59.754;10.110;2022-11-27T17:30:03;1.10;;;0.80;;
65289;SDS011;51893;59.754;10.110;2022-11-27T17:32:33;0.90;;;0.70;;
65289;SDS011;51893;59.754;10.110;2022-11-27T17:35:05;1.70;;;1.30;;
65289;SDS011;51893;59.754;10.110;2022-11-27T17:37:35;1.50;;;1.00;;
65289;SDS011;51893;59.754;10.110;2022-11-27T17:40:06;2.40;;;1.50;;
65289;SDS011;51893;59.754;10.110;2022-11-27T17:42:36;1.40;;;1.30;;
65289;SDS011;51893;59.754;10.110;2022-11-27T17:45:06;1.70;;;1.40;;